Airport View

Enter AWOS ICAO identifier for current METAR.

ex. KFNL

KMNV 080355Z AUTO 00000KT 10SM CLR 23/22 A3000 RMK A01

8 Jul 2020 04:06

Frequency: 118.475

Phone: 423-442-6170

Other Area AWOS: KMMI - KTYS - KRKW - K2A0

TAF KTYS 072320Z 0800/0824 06004KT P6SM VCSH BKN090 TEMPO 0800/0803 4SM -SHRA BR OVC025 FM080300 00000KT P6SM BKN080 FM081000 00000KT 4SM BR BKN080 FM081200 00000KT P6SM BKN080 PROB30 0816/0822 4SM TSRA BR BKN045CB